Time;durP1;ratioP1;P1;durP2;ratioP2;P2;SDS_P1;SDS_P2;PMS_P1;PMS_P2;Temp;Humidity;BMP_temperature;BMP_pressure;BME280_temperature;BME280_humidity;BME280_pressure;Samples;Min_cycle;Max_cycle;Signal;HPM_P1;HPM_P2
2021/05/13 00:02:25;;;;;;;25.67;14.90;;;;;;;-144.99;nan;52342.09;5015594;28;20221;-63
2021/05/13 00:04:51;;;;;;;19.47;12.13;;;;;;;-144.99;nan;52317.66;5015177;28;20268;-65
2021/05/13 00:07:23;;;;;;;21.07;11.87;;;;;;;-144.99;nan;52382.88;5015009;28;20218;-64
2021/05/13 00:09:49;;;;;;;21.23;14.17;;;;;;;-144.99;nan;52366.56;5011631;28;20242;-63
2021/05/13 00:12:35;;;;;;;21.23;14.57;;;;;;;-144.99;nan;52342.09;5010926;28;20281;-63
2021/05/13 00:15:11;;;;;;;19.80;11.93;;;;;;;-144.99;nan;52358.41;5012126;28;20592;-64
2021/05/13 00:17:38;;;;;;;21.93;14.03;;;;;;;-144.99;nan;52305.41;5000314;28;20206;-64
2021/05/13 00:20:08;;;;;;;22.50;13.73;;;;;;;-144.99;nan;52338.03;5010685;28;20318;-63
2021/05/13 00:22:34;;;;;;;22.73;16.90;;;;;;;-144.99;nan;52313.56;5003812;28;20649;-65
2021/05/13 00:25:03;;;;;;;23.90;13.70;;;;;;;-144.99;nan;52313.56;5011208;28;20226;-66
2021/05/13 00:27:30;;;;;;;21.13;13.47;;;;;;;-144.99;nan;52313.56;5011488;28;20226;-65
2021/05/13 00:29:59;;;;;;;20.47;12.70;;;;;;;-144.99;nan;52329.88;5013582;28;20723;-65
2021/05/13 00:32:25;;;;;;;16.70;13.30;;;;;;;-144.99;nan;52366.56;5010439;28;20430;-65
2021/05/13 00:34:51;;;;;;;18.63;12.97;;;;;;;-144.99;nan;52333.94;5010767;28;20385;-65
2021/05/13 00:37:17;;;;;;;19.47;11.87;;;;;;;-144.99;nan;52325.81;5010937;28;20234;-65
2021/05/13 00:39:47;;;;;;;14.07;11.37;;;;;;;-144.99;nan;52354.34;5010402;28;20234;-67
2021/05/13 00:42:13;;;;;;;17.63;11.47;;;;;;;-144.99;nan;52354.34;5010077;28;20237;-63
2021/05/13 00:44:42;;;;;;;20.07;11.37;;;;;;;-144.99;nan;52317.66;5009594;28;21036;-64
2021/05/13 00:47:08;;;;;;;17.47;13.70;;;;;;;-144.99;nan;52311.53;5009876;28;20610;-62
2021/05/13 00:49:34;;;;;;;18.93;13.10;;;;;;;-144.99;nan;52354.34;5009932;28;20222;-62
2021/05/13 00:52:03;;;;;;;16.40;12.87;;;;;;;-144.99;nan;52301.34;5008854;28;20211;-63
2021/05/13 00:54:36;;;;;;;16.57;12.93;;;;;;;-144.99;nan;52305.41;5009910;28;20221;-63
2021/05/13 00:57:02;;;;;;;17.60;12.83;;;;;;;-144.99;nan;52344.16;5008718;28;20211;-62
2021/05/13 00:59:34;;;;;;;17.70;13.23;;;;;;;-144.99;nan;52358.41;5013184;28;20340;-63
2021/05/13 01:02:01;;;;;;;19.47;14.27;;;;;;;-144.99;nan;52317.66;5005855;28;20223;-62
2021/05/13 01:04:29;;;;;;;18.77;12.57;;;;;;;-144.99;nan;52350.25;5010232;28;20207;-59
2021/05/13 01:06:56;;;;;;;17.33;12.53;;;;;;;-144.99;nan;52297.25;5010644;28;20234;-59
2021/05/13 01:09:30;;;;;;;21.17;11.40;;;;;;;-144.99;nan;52360.44;5009704;28;20696;-58
2021/05/13 01:12:01;;;;;;;19.40;12.80;;;;;;;-144.99;nan;52307.47;5005549;28;20240;-59
2021/05/13 01:14:30;;;;;;;18.53;12.77;;;;;;;-144.99;nan;52342.09;5010038;28;20207;-59
2021/05/13 01:17:01;;;;;;;18.30;11.70;;;;;;;-144.99;nan;52342.09;5009877;28;20203;-58
2021/05/13 01:19:29;;;;;;;18.73;13.17;;;;;;;-144.99;nan;52309.50;5009700;28;20491;-59
2021/05/13 01:21:56;;;;;;;18.83;14.40;;;;;;;-144.99;nan;52338.03;4999630;28;20239;-60
2021/05/13 01:24:25;;;;;;;15.93;11.27;;;;;;;-144.99;nan;52327.84;5009667;28;20215;-60
2021/05/13 01:26:54;;;;;;;17.57;12.03;;;;;;;-144.99;nan;52352.28;5010244;28;20211;-59
2021/05/13 01:29:26;;;;;;;16.30;12.00;;;;;;;-144.99;nan;52333.94;5012939;28;20227;-59
2021/05/13 01:31:53;;;;;;;18.57;13.23;;;;;;;-144.99;nan;52301.34;5009486;28;20657;-59
2021/05/13 01:34:23;;;;;;;19.00;14.67;;;;;;;-144.99;nan;52356.38;5009587;28;20223;-59
2021/05/13 01:36:49;;;;;;;15.73;10.27;;;;;;;-144.99;nan;52342.09;5009833;28;20207;-59
2021/05/13 01:39:19;;;;;;;20.60;15.93;;;;;;;-144.99;nan;52317.66;5009853;28;20231;-58
2021/05/13 01:41:45;;;;;;;18.70;11.97;;;;;;;-144.99;nan;52350.25;5003462;28;20226;-59
2021/05/13 01:44:15;;;;;;;16.67;11.17;;;;;;;-144.99;nan;52333.94;5009151;28;20211;-59
2021/05/13 01:46:41;;;;;;;17.37;12.20;;;;;;;-144.99;nan;52317.66;5009142;28;20242;-58
2021/05/13 01:49:16;;;;;;;18.53;12.83;;;;;;;-144.99;nan;52317.66;5009357;28;20226;-58
2021/05/13 01:51:46;;;;;;;20.03;16.20;;;;;;;-144.99;nan;52342.09;5009297;28;20225;-58
2021/05/13 01:54:12;;;;;;;25.60;14.47;;;;;;;-144.99;nan;52342.09;5003401;28;20606;-58
2021/05/13 01:56:39;;;;;;;22.50;14.20;;;;;;;-144.99;nan;52364.53;5007770;28;20210;-57
2021/05/13 01:59:05;;;;;;;18.50;13.60;;;;;;;-144.99;nan;52321.72;5009108;28;20241;-57
2021/05/13 02:01:31;;;;;;;23.93;16.80;;;;;;;-144.99;nan;52307.47;5004618;28;20238;-57
2021/05/13 02:04:03;;;;;;;19.20;13.40;;;;;;;-144.99;nan;52317.66;5009873;28;20288;-57
2021/05/13 02:06:29;;;;;;;27.77;12.70;;;;;;;-144.99;nan;52305.41;5004473;28;20268;-58
2021/05/13 02:08:58;;;;;;;16.57;12.67;;;;;;;-144.99;nan;52333.94;5008875;28;20611;-58
2021/05/13 02:11:24;;;;;;;22.50;13.93;;;;;;;-144.99;nan;52329.88;5009060;28;20206;-58
2021/05/13 02:13:55;;;;;;;22.43;16.83;;;;;;;-144.99;nan;52366.56;5009221;28;20211;-58
2021/05/13 02:16:23;;;;;;;17.77;12.20;;;;;;;-144.99;nan;52338.03;5008729;28;20752;-59
2021/05/13 02:18:50;;;;;;;19.93;12.70;;;;;;;-144.99;nan;52362.50;5009453;28;20584;-60
2021/05/13 02:21:16;;;;;;;22.83;15.03;;;;;;;-144.99;nan;52346.19;5004921;28;20686;-61
2021/05/13 02:23:45;;;;;;;19.17;12.90;;;;;;;-144.99;nan;52313.56;5007107;28;20586;-61
2021/05/13 02:26:11;;;;;;;25.63;14.27;;;;;;;-144.99;nan;52309.50;5008701;28;20268;-61
2021/05/13 02:28:37;;;;;;;16.67;13.37;;;;;;;-144.99;nan;52309.50;5009326;28;20231;-62
2021/05/13 02:31:04;;;;;;;18.63;12.80;;;;;;;-144.99;nan;52346.19;5011024;28;20218;-61
2021/05/13 02:33:35;;;;;;;23.17;15.37;;;;;;;-144.99;nan;52317.66;5008427;28;20207;-59
2021/05/13 02:36:01;;;;;;;17.17;11.90;;;;;;;-144.99;nan;52321.72;5009161;28;20219;-59
2021/05/13 02:38:30;;;;;;;20.83;13.27;;;;;;;-144.99;nan;52305.41;5008916;28;20211;-58
2021/05/13 02:40:59;;;;;;;26.63;13.40;;;;;;;-144.99;nan;52358.41;5006879;28;20230;-62
2021/05/13 02:43:25;;;;;;;20.13;11.63;;;;;;;-144.99;nan;52333.94;5008953;28;20221;-60
2021/05/13 02:45:51;;;;;;;18.13;15.07;;;;;;;-144.99;nan;52317.66;5007785;28;20210;-61
2021/05/13 02:48:18;;;;;;;16.90;13.20;;;;;;;-144.99;nan;52313.56;5008662;28;20296;-62
2021/05/13 02:50:44;;;;;;;19.93;13.13;;;;;;;-144.99;nan;52319.69;5008597;28;20228;-61
2021/05/13 02:53:13;;;;;;;16.63;11.33;;;;;;;-144.99;nan;52342.09;5008629;28;20692;-60
2021/05/13 02:55:45;;;;;;;18.13;12.87;;;;;;;-144.99;nan;52362.50;5008269;28;20549;-60
2021/05/13 02:58:14;;;;;;;16.40;13.97;;;;;;;-144.99;nan;52270.78;5011587;28;20599;-60
2021/05/13 03:00:52;;;;;;;16.97;13.33;;;;;;;-144.99;nan;52315.59;5008265;28;20231;-59
2021/05/13 03:03:18;;;;;;;17.20;11.87;;;;;;;-144.99;nan;52352.28;5011967;28;20669;-59
2021/05/13 03:05:50;;;;;;;18.33;12.67;;;;;;;-144.99;nan;52309.50;5012570;28;20218;-58
2021/05/13 03:08:16;;;;;;;17.87;12.00;;;;;;;-144.99;nan;52311.53;5012617;28;20675;-58
2021/05/13 03:10:45;;;;;;;16.27;12.30;;;;;;;-144.99;nan;52336.00;5012260;28;20199;-59
2021/05/13 03:13:20;;;;;;;20.53;13.80;;;;;;;-144.99;nan;52350.25;5013477;28;20297;-59
2021/05/13 03:15:46;;;;;;;13.93;9.73;;;;;;;-144.99;nan;52309.50;5012517;28;20584;-59
2021/05/13 03:18:19;;;;;;;14.40;10.77;;;;;;;-144.99;nan;52358.41;5008073;28;20351;-59
2021/05/13 03:20:52;;;;;;;16.47;11.97;;;;;;;-144.99;nan;52350.25;5001021;28;20231;-60
2021/05/13 03:23:26;;;;;;;18.57;14.70;;;;;;;-144.99;nan;52321.72;5011156;28;20210;-58
2021/05/13 03:25:58;;;;;;;18.03;12.43;;;;;;;-144.99;nan;52307.47;5011668;28;20641;-59
2021/05/13 03:28:24;;;;;;;15.40;12.47;;;;;;;-144.99;nan;52313.56;5012440;28;20210;-60
2021/05/13 03:30:53;;;;;;;18.30;13.57;;;;;;;-144.99;nan;52333.94;5013801;28;20624;-58
2021/05/13 03:33:22;;;;;;;20.03;16.07;;;;;;;-144.99;nan;52358.41;5012203;28;20266;-60
2021/05/13 03:35:57;;;;;;;20.00;13.87;;;;;;;-144.99;nan;52350.25;5011861;28;20827;-60
2021/05/13 03:38:27;;;;;;;18.50;14.37;;;;;;;-144.99;nan;52346.19;5011698;28;20214;-59
2021/05/13 03:40:56;;;;;;;22.27;12.47;;;;;;;-144.99;nan;52329.88;5011348;28;20234;-60
2021/05/13 03:43:25;;;;;;;21.57;13.83;;;;;;;-144.99;nan;52323.75;5011814;28;20621;-61
2021/05/13 03:45:53;;;;;;;18.60;12.60;;;;;;;-144.99;nan;52340.06;5011842;28;20222;-60
2021/05/13 03:48:19;;;;;;;22.90;16.20;;;;;;;-144.99;nan;52317.66;5011574;28;20219;-61
2021/05/13 03:50:45;;;;;;;18.07;12.77;;;;;;;-144.99;nan;52315.59;5011730;28;20623;-62
2021/05/13 03:53:15;;;;;;;21.23;15.40;;;;;;;-144.99;nan;52342.09;5008925;28;20229;-61
2021/05/13 03:55:48;;;;;;;19.33;14.00;;;;;;;-144.99;nan;52325.81;5010175;28;20225;-62
2021/05/13 03:58:17;;;;;;;22.23;13.57;;;;;;;-144.99;nan;52333.94;5011235;28;20477;-62
2021/05/13 04:00:59;;;;;;;19.57;14.33;;;;;;;-144.99;nan;52354.34;5008623;28;20227;-62
2021/05/13 04:03:25;;;;;;;24.83;15.63;;;;;;;-144.99;nan;52315.59;5011231;28;20673;-62
2021/05/13 04:05:51;;;;;;;18.73;14.67;;;;;;;-144.99;nan;52329.88;5010756;28;20211;-61
2021/05/13 04:08:21;;;;;;;25.87;14.57;;;;;;;-144.99;nan;52333.94;5011543;28;20206;-62
2021/05/13 04:10:55;;;;;;;20.40;15.57;;;;;;;-144.99;nan;52325.81;5011133;28;20203;-64
2021/05/13 04:13:24;;;;;;;18.90;13.43;;;;;;;-144.99;nan;52376.75;5011360;28;20288;-63
2021/05/13 04:15:53;;;;;;;26.27;16.47;;;;;;;-144.99;nan;52321.72;5011094;28;20215;-64
2021/05/13 04:18:19;;;;;;;20.10;14.83;;;;;;;-144.99;nan;52354.34;5005719;28;20222;-62
2021/05/13 04:20:46;;;;;;;21.20;16.47;;;;;;;-144.99;nan;52321.72;5005330;28;20251;-62
2021/05/13 04:23:12;;;;;;;25.77;17.37;;;;;;;-144.99;nan;52338.03;5005103;28;20207;-62
2021/05/13 04:25:39;;;;;;;25.70;15.83;;;;;;;-144.99;nan;52323.75;5010818;28;20261;-61
2021/05/13 04:28:07;;;;;;;20.67;14.00;;;;;;;-144.99;nan;52358.41;5010971;28;20203;-61
2021/05/13 04:30:33;;;;;;;23.23;15.53;;;;;;;-144.99;nan;52313.56;5012362;28;20218;-62
2021/05/13 04:32:59;;;;;;;21.50;14.80;;;;;;;-144.99;nan;52354.34;5011106;28;20265;-63
2021/05/13 04:35:31;;;;;;;24.67;16.67;;;;;;;-144.99;nan;52333.94;5012585;28;20206;-61
2021/05/13 04:37:57;;;;;;;22.83;17.53;;;;;;;-144.99;nan;52362.50;5012918;28;20558;-63
2021/05/13 04:40:26;;;;;;;27.97;19.10;;;;;;;-144.99;nan;52311.53;5012764;28;20241;-61
2021/05/13 04:42:53;;;;;;;30.10;21.90;;;;;;;-144.99;nan;52344.16;5010972;28;20215;-63
2021/05/13 04:45:24;;;;;;;32.63;18.93;;;;;;;-144.99;nan;52354.34;5008392;28;20218;-64
2021/05/13 04:48:06;;;;;;;32.23;17.67;;;;;;;-144.99;nan;52329.88;5007977;28;20218;-61
2021/05/13 04:50:35;;;;;;;31.23;20.80;;;;;;;-144.99;nan;52305.41;5010211;28;20222;-59
2021/05/13 04:53:08;;;;;;;27.33;18.63;;;;;;;-144.99;nan;52338.03;5009871;28;20242;-58
2021/05/13 04:55:34;;;;;;;27.47;17.17;;;;;;;-144.99;nan;52319.69;5005529;28;20210;-57
2021/05/13 04:58:01;;;;;;;33.07;23.20;;;;;;;-144.99;nan;52329.88;5009724;28;20627;-57
2021/05/13 05:00:33;;;;;;;26.63;17.57;;;;;;;-144.99;nan;52342.09;5007243;28;20223;-62
2021/05/13 05:02:59;;;;;;;34.70;21.87;;;;;;;-144.99;nan;52325.81;5010599;28;20214;-61
2021/05/13 05:05:31;;;;;;;28.57;19.13;;;;;;;-144.99;nan;52333.94;5010050;28;20210;-61
2021/05/13 05:07:57;;;;;;;24.23;17.73;;;;;;;-144.99;nan;52348.22;5011046;28;20575;-61
2021/05/13 05:10:25;;;;;;;22.27;15.43;;;;;;;-144.99;nan;52346.19;5009759;28;20230;-62
2021/05/13 05:12:52;;;;;;;28.10;17.77;;;;;;;-144.99;nan;52289.13;5010799;28;20218;-62
2021/05/13 05:15:19;;;;;;;27.97;18.97;;;;;;;-144.99;nan;52305.41;5010121;28;20457;-61
2021/05/13 05:17:45;;;;;;;24.73;14.73;;;;;;;-144.99;nan;52280.97;5004558;28;20276;-61
2021/05/13 05:20:12;;;;;;;24.87;18.33;;;;;;;-144.99;nan;52293.19;5009450;28;20231;-62
2021/05/13 05:22:41;;;;;;;25.93;15.33;;;;;;;-144.99;nan;52325.81;5010387;28;20214;-62
2021/05/13 05:25:10;;;;;;;17.87;13.83;;;;;;;-144.99;nan;52293.19;5009658;28;20661;-60
2021/05/13 05:27:39;;;;;;;17.27;12.67;;;;;;;-144.99;nan;52342.09;5010142;28;20214;-60
2021/05/13 05:30:09;;;;;;;21.73;13.57;;;;;;;-144.99;nan;52301.34;5012411;28;20234;-60
2021/05/13 05:32:39;;;;;;;24.43;14.60;;;;;;;-144.99;nan;52329.88;5010271;28;20211;-60
2021/05/13 05:35:06;;;;;;;20.13;13.80;;;;;;;-144.99;nan;52329.88;5010037;28;20213;-60
2021/05/13 05:37:32;;;;;;;16.47;12.23;;;;;;;-144.99;nan;52374.72;5010196;28;20207;-60
2021/05/13 05:40:05;;;;;;;19.30;11.30;;;;;;;-144.99;nan;52319.69;5009420;28;20234;-59
2021/05/13 05:42:31;;;;;;;20.47;13.43;;;;;;;-144.99;nan;52362.50;5008988;28;20227;-59
2021/05/13 05:44:57;;;;;;;18.40;11.23;;;;;;;-144.99;nan;52285.03;5009261;28;20210;-59
2021/05/13 05:47:23;;;;;;;23.03;12.30;;;;;;;-144.99;nan;52301.34;5009770;28;20219;-64
2021/05/13 05:49:50;;;;;;;19.63;12.20;;;;;;;-144.99;nan;52307.47;5009706;28;20223;-64
2021/05/13 05:52:16;;;;;;;19.30;12.63;;;;;;;-144.99;nan;52317.66;5005518;28;20253;-64
2021/05/13 05:54:42;;;;;;;21.63;14.40;;;;;;;-144.99;nan;52305.41;5009762;28;20682;-63
2021/05/13 05:57:09;;;;;;;20.87;12.67;;;;;;;-144.99;nan;52309.50;5006889;28;20294;-63
2021/05/13 05:59:35;;;;;;;17.63;12.47;;;;;;;-144.99;nan;52321.72;5005203;28;20725;-63
2021/05/13 06:02:01;;;;;;;18.83;12.40;;;;;;;-144.99;nan;52358.41;5008212;28;20825;-63
2021/05/13 06:04:27;;;;;;;19.70;11.63;;;;;;;-144.99;nan;52333.94;5009602;28;20383;-62
2021/05/13 06:06:56;;;;;;;15.90;9.17;;;;;;;-144.99;nan;52311.53;5009442;28;20486;-63
2021/05/13 06:09:28;;;;;;;14.77;10.67;;;;;;;-144.99;nan;52333.94;5009252;28;20753;-64
2021/05/13 06:12:00;;;;;;;14.90;9.60;;;;;;;-144.99;nan;52325.81;5005466;28;20537;-64
2021/05/13 06:14:26;;;;;;;18.63;9.97;;;;;;;-144.99;nan;52309.50;5009710;28;20278;-65
2021/05/13 06:16:52;;;;;;;18.97;12.23;;;;;;;-144.99;nan;52358.41;5003641;28;20590;-64
2021/05/13 06:19:19;;;;;;;14.93;10.00;;;;;;;-144.99;nan;52289.13;5008841;28;20226;-63
2021/05/13 06:21:45;;;;;;;16.30;12.03;;;;;;;-144.99;nan;52293.19;5009498;28;20339;-63
2021/05/13 06:24:12;;;;;;;15.60;9.77;;;;;;;-144.99;nan;52285.03;5006528;28;20732;-63
2021/05/13 06:26:41;;;;;;;15.70;10.97;;;;;;;-144.99;nan;52321.72;5008853;28;20669;-62
2021/05/13 06:29:08;;;;;;;15.87;8.87;;;;;;;-144.99;nan;52305.41;5014439;28;20244;-63
2021/05/13 06:31:38;;;;;;;16.30;8.77;;;;;;;-144.99;nan;52319.69;5015094;28;20680;-62
2021/05/13 06:34:07;;;;;;;13.50;9.13;;;;;;;-144.99;nan;52342.09;5015778;28;20214;-61
2021/05/13 06:36:35;;;;;;;15.70;8.47;;;;;;;-144.99;nan;52301.34;5012437;28;20214;-63
2021/05/13 06:39:05;;;;;;;17.07;12.07;;;;;;;-144.99;nan;52321.72;5015585;28;20669;-63
2021/05/13 06:41:35;;;;;;;13.53;8.70;;;;;;;-144.99;nan;52276.88;5014881;28;20230;-63
2021/05/13 06:44:02;;;;;;;14.97;8.63;;;;;;;-144.99;nan;52305.41;5014154;28;20206;-68
2021/05/13 06:46:31;;;;;;;16.93;9.47;;;;;;;-144.99;nan;52354.34;5017237;28;20230;-69
2021/05/13 06:48:57;;;;;;;15.53;8.47;;;;;;;-144.99;nan;52285.03;5012372;28;20251;-68
2021/05/13 06:51:24;;;;;;;11.43;9.87;;;;;;;-144.99;nan;52325.81;5009537;28;20202;-67
2021/05/13 06:53:55;;;;;;;11.87;8.87;;;;;;;-144.99;nan;52338.03;5010439;28;20295;-67
2021/05/13 06:56:25;;;;;;;14.40;9.70;;;;;;;-144.99;nan;52329.88;5014081;28;20213;-70
2021/05/13 06:58:54;;;;;;;13.03;8.80;;;;;;;-144.99;nan;52323.75;5009414;28;20234;-66
2021/05/13 07:01:23;;;;;;;13.50;9.80;;;;;;;-144.99;nan;52321.72;5003431;28;20632;-67
2021/05/13 07:03:49;;;;;;;12.57;7.60;;;;;;;-144.99;nan;52297.25;5012777;28;20207;-69
2021/05/13 07:06:16;;;;;;;14.23;9.03;;;;;;;-144.99;nan;52307.47;5016002;28;20217;-69
2021/05/13 07:08:42;;;;;;;13.37;9.20;;;;;;;-144.99;nan;52309.50;5009387;28;20234;-66
2021/05/13 07:11:08;;;;;;;13.87;9.53;;;;;;;-144.99;nan;52276.88;5010681;28;20199;-68
2021/05/13 07:13:36;;;;;;;13.63;8.13;;;;;;;-144.99;nan;52258.53;5010425;28;20660;-65
2021/05/13 07:16:04;;;;;;;14.83;9.97;;;;;;;-144.99;nan;52317.66;5014263;28;20226;-65
2021/05/13 07:18:33;;;;;;;17.87;9.13;;;;;;;-144.99;nan;52280.97;5013326;28;20261;-69
2021/05/13 07:20:59;;;;;;;15.00;11.07;;;;;;;-144.99;nan;52313.56;5018389;28;20230;-65
2021/05/13 07:23:25;;;;;;;12.70;8.93;;;;;;;-144.99;nan;52285.03;5005869;28;20463;-67
2021/05/13 07:25:55;;;;;;;12.47;8.03;;;;;;;-144.99;nan;52321.72;5014898;28;20486;-65
2021/05/13 07:28:27;;;;;;;10.83;8.57;;;;;;;-144.99;nan;52303.38;5015565;28;20203;-64
2021/05/13 07:30:56;;;;;;;11.70;7.53;;;;;;;-144.99;nan;52248.34;5015131;28;20249;-68
2021/05/13 07:33:23;;;;;;;15.30;8.00;;;;;;;-144.99;nan;52268.72;5018615;28;20242;-64
2021/05/13 07:35:49;;;;;;;14.30;7.97;;;;;;;-144.99;nan;52280.97;5012470;28;20202;-65
2021/05/13 07:38:15;;;;;;;10.80;7.40;;;;;;;-144.99;nan;52301.34;5011765;28;20211;-66
2021/05/13 07:40:44;;;;;;;8.27;5.43;;;;;;;-144.99;nan;52315.59;5014244;28;20237;-66
2021/05/13 07:43:10;;;;;;;10.10;6.43;;;;;;;-144.99;nan;52260.56;5009559;28;20204;-64
2021/05/13 07:45:43;;;;;;;10.13;6.53;;;;;;;-144.99;nan;52289.13;5015713;28;20634;-66
2021/05/13 07:48:15;;;;;;;10.40;5.90;;;;;;;-144.99;nan;52299.31;5014326;28;20257;-63
2021/05/13 07:50:42;;;;;;;10.03;5.63;;;;;;;-144.99;nan;52280.97;5012585;28;20269;-64
2021/05/13 07:53:08;;;;;;;7.40;5.53;;;;;;;-144.99;nan;52293.19;5008258;28;20211;-66
2021/05/13 07:55:37;;;;;;;8.47;5.53;;;;;;;-144.99;nan;52280.97;5010253;28;20214;-66
2021/05/13 07:58:04;;;;;;;7.50;5.47;;;;;;;-144.99;nan;52295.22;5012261;28;20222;-66
2021/05/13 08:00:39;;;;;;;7.90;5.23;;;;;;;-144.99;nan;52309.50;5011900;28;20265;-67
2021/05/13 08:03:06;;;;;;;7.83;4.83;;;;;;;-144.99;nan;52297.25;5011293;28;20206;-64
2021/05/13 08:05:34;;;;;;;6.67;4.97;;;;;;;-144.99;nan;52272.81;5012005;28;20346;-64
2021/05/13 08:08:02;;;;;;;11.87;4.53;;;;;;;-144.99;nan;52309.50;5011978;28;20211;-65
2021/05/13 08:10:29;;;;;;;11.40;5.37;;;;;;;-144.99;nan;52325.81;5012827;28;20250;-65
2021/05/13 08:12:55;;;;;;;14.90;6.87;;;;;;;-144.99;nan;52293.19;5012117;28;20214;-64
2021/05/13 08:15:22;;;;;;;10.07;4.60;;;;;;;-144.99;nan;52293.19;5012103;28;20217;-64
2021/05/13 08:17:48;;;;;;;5.90;4.43;;;;;;;-144.99;nan;52297.25;5009700;28;20326;-64
2021/05/13 08:20:16;;;;;;;10.80;5.10;;;;;;;-144.99;nan;52321.72;5006280;28;20801;-64
2021/05/13 08:22:43;;;;;;;4.40;3.10;;;;;;;-144.99;nan;52325.81;5011591;28;20243;-64
2021/05/13 08:25:13;;;;;;;6.63;4.47;;;;;;;-144.99;nan;52305.41;5008175;28;20273;-65
2021/05/13 08:27:39;;;;;;;8.77;4.43;;;;;;;-144.99;nan;52289.13;5010842;28;20207;-67
2021/05/13 08:30:07;;;;;;;7.90;3.90;;;;;;;-144.99;nan;52297.25;5013759;28;20320;-65
2021/05/13 08:32:36;;;;;;;6.93;3.50;;;;;;;-144.99;nan;52325.81;5010224;28;20719;-65
2021/05/13 08:35:03;;;;;;;5.97;3.70;;;;;;;-144.99;nan;52307.47;5011869;28;20664;-65
2021/05/13 08:37:29;;;;;;;7.47;4.23;;;;;;;-144.99;nan;52301.34;5011483;28;20251;-65
2021/05/13 08:39:55;;;;;;;6.20;5.00;;;;;;;-144.99;nan;52315.59;5010545;28;20605;-69
2021/05/13 08:42:22;;;;;;;8.47;5.17;;;;;;;-144.99;nan;52309.50;5011221;28;20228;-65
2021/05/13 08:44:49;;;;;;;7.57;5.53;;;;;;;-144.99;nan;52338.03;5005650;28;20216;-65
2021/05/13 08:47:18;;;;;;;11.63;7.90;;;;;;;-144.99;nan;52293.19;5011587;28;20229;-65
2021/05/13 08:49:44;;;;;;;7.27;4.83;;;;;;;-144.99;nan;52260.56;5010073;28;20701;-68
2021/05/13 08:52:11;;;;;;;6.53;4.60;;;;;;;-144.99;nan;52323.75;5009107;28;20229;-68
2021/05/13 08:54:50;;;;;;;9.50;4.33;;;;;;;-144.99;nan;52321.72;5006582;28;20693;-65
2021/05/13 08:57:18;;;;;;;6.23;3.77;;;;;;;-144.99;nan;52317.66;5009475;28;20222;-66
2021/05/13 08:59:45;;;;;;;11.97;6.77;;;;;;;-144.99;nan;52289.13;5009244;28;20222;-66
2021/05/13 09:02:14;;;;;;;8.40;4.53;;;;;;;-144.99;nan;52305.41;5010145;28;20609;-65
2021/05/13 09:04:42;;;;;;;9.70;6.13;;;;;;;-144.99;nan;52329.88;5012734;28;20673;-66
2021/05/13 09:07:12;;;;;;;9.83;6.03;;;;;;;-144.99;nan;52315.59;5010822;28;20266;-67
2021/05/13 09:09:57;;;;;;;11.80;4.70;;;;;;;-144.99;nan;52305.41;5010030;28;20598;-66
2021/05/13 09:12:28;;;;;;;8.13;5.00;;;;;;;-144.99;nan;52325.81;5003123;28;20242;-67
2021/05/13 09:15:01;;;;;;;7.93;5.07;;;;;;;-144.99;nan;52297.25;5005913;28;20202;-66
2021/05/13 09:17:29;;;;;;;7.23;4.37;;;;;;;-144.99;nan;52321.72;5009038;28;20203;-67
2021/05/13 09:19:56;;;;;;;8.50;4.57;;;;;;;-144.99;nan;52325.81;5008102;28;20233;-68
2021/05/13 09:22:24;;;;;;;8.13;4.57;;;;;;;-144.99;nan;52289.13;5006392;28;20712;-67
2021/05/13 09:24:55;;;;;;;8.07;6.10;;;;;;;-144.99;nan;52280.97;5008312;28;20211;-70
2021/05/13 09:27:27;;;;;;;10.57;6.40;;;;;;;-144.99;nan;52285.03;5007589;28;20206;-69
2021/05/13 09:30:13;;;;;;;9.50;4.30;;;;;;;-144.99;nan;52285.03;5012336;28;20231;-68
2021/05/13 09:32:44;;;;;;;8.67;4.63;;;;;;;-144.99;nan;52301.34;5006516;28;20203;-68
2021/05/13 09:35:14;;;;;;;9.17;5.90;;;;;;;-144.99;nan;52309.50;5010545;28;20704;-69
2021/05/13 09:37:43;;;;;;;10.50;6.87;;;;;;;-144.99;nan;52305.41;5010466;28;20207;-65
2021/05/13 09:40:11;;;;;;;10.43;5.37;;;;;;;-144.99;nan;52309.50;5009710;28;20443;-66
2021/05/13 09:42:38;;;;;;;12.23;5.33;;;;;;;-144.99;nan;52270.78;5009648;28;20421;-66
2021/05/13 09:45:08;;;;;;;10.57;5.20;;;;;;;-144.99;nan;52293.19;5009358;28;20210;-67
2021/05/13 09:47:34;;;;;;;9.17;6.07;;;;;;;-144.99;nan;52276.88;5006686;28;20222;-68
2021/05/13 09:50:21;;;;;;;7.80;6.13;;;;;;;-144.99;nan;52289.13;5009427;28;20234;-68
2021/05/13 09:52:50;;;;;;;11.03;5.33;;;;;;;-144.99;nan;52309.50;5006427;28;20203;-65
2021/05/13 09:55:24;;;;;;;10.37;5.20;;;;;;;-144.99;nan;52252.44;5010075;28;20305;-66
2021/05/13 09:57:57;;;;;;;8.50;4.87;;;;;;;-144.99;nan;52293.19;5010223;28;20214;-67
2021/05/13 10:00:42;;;;;;;8.53;4.63;;;;;;;-144.99;nan;52280.97;5009435;28;20664;-66
2021/05/13 10:03:12;;;;;;;7.93;4.33;;;;;;;-144.99;nan;52252.44;5009042;28;20544;-66
2021/05/13 10:05:44;;;;;;;7.53;4.43;;;;;;;-144.99;nan;52276.88;5007493;28;20211;-67
2021/05/13 10:08:15;;;;;;;4.93;4.33;;;;;;;-144.99;nan;52276.88;5009652;28;20560;-66
2021/05/13 10:10:46;;;;;;;7.70;4.87;;;;;;;-144.99;nan;52305.41;5001802;28;20211;-67
2021/05/13 10:13:15;;;;;;;8.50;5.70;;;;;;;-144.99;nan;52285.03;5007853;28;20578;-67
2021/05/13 10:15:45;;;;;;;18.13;5.90;;;;;;;-144.99;nan;52289.13;5009762;28;20210;-67
2021/05/13 10:18:24;;;;;;;7.47;4.50;;;;;;;-144.99;nan;52264.66;5007504;28;20219;-69
2021/05/13 10:21:01;;;;;;;8.27;4.80;;;;;;;-144.99;nan;52266.69;5006628;28;20222;-66
2021/05/13 10:23:28;;;;;;;8.03;4.10;;;;;;;-144.99;nan;52295.22;5009068;28;20207;-65
2021/05/13 10:25:57;;;;;;;9.80;4.67;;;;;;;-144.99;nan;52297.25;5007420;28;20212;-66
2021/05/13 10:28:33;;;;;;;9.03;5.30;;;;;;;-144.99;nan;52266.69;5005784;28;20213;-68
2021/05/13 10:31:06;;;;;;;8.90;5.53;;;;;;;-144.99;nan;52297.25;5012586;28;20211;-68
2021/05/13 10:33:51;;;;;;;7.20;6.27;;;;;;;-144.99;nan;52285.03;5002663;28;20239;-67
2021/05/13 10:36:18;;;;;;;7.50;4.90;;;;;;;-144.99;nan;52268.72;5008402;28;20203;-66
2021/05/13 10:38:47;;;;;;;5.73;4.33;;;;;;;-144.99;nan;52276.88;5010091;28;20234;-67
2021/05/13 10:41:42;;;;;;;7.60;5.23;;;;;;;-144.99;nan;52301.34;5013909;28;20240;-69
2021/05/13 10:44:35;;;;;;;10.50;6.67;;;;;;;-144.99;nan;52299.31;5017489;28;20611;-69
2021/05/13 10:47:02;;;;;;;8.30;6.00;;;;;;;-144.99;nan;52264.66;5019215;28;20211;-67
2021/05/13 10:49:29;;;;;;;10.27;6.70;;;;;;;-144.99;nan;52278.91;5017905;28;20223;-68
2021/05/13 10:51:56;;;;;;;8.57;5.97;;;;;;;-144.99;nan;52313.56;5019854;28;20195;-68
2021/05/13 10:54:44;;;;;;;7.93;5.87;;;;;;;-144.99;nan;52329.88;5016605;28;20203;-69
2021/05/13 10:57:13;;;;;;;8.17;5.77;;;;;;;-144.99;nan;52317.66;5016239;28;20226;-66
2021/05/13 10:59:57;;;;;;;6.90;4.93;;;;;;;-144.99;nan;52295.22;5012351;28;20232;-67
2021/05/13 11:02:37;;;;;;;8.27;6.00;;;;;;;-144.99;nan;52293.19;5010633;28;20234;-70
2021/05/13 11:05:40;;;;;;;7.00;5.73;;;;;;;-144.99;nan;52268.72;5010030;28;20211;-68
2021/05/13 11:08:25;;;;;;;8.80;6.27;;;;;;;-144.99;nan;52289.13;5011763;28;20202;-67
2021/05/13 11:10:58;;;;;;;10.17;6.37;;;;;;;-144.99;nan;52283.00;5007496;28;20218;-69
2021/05/13 11:13:38;;;;;;;7.87;6.50;;;;;;;-144.99;nan;52293.19;5013259;28;20215;-68
2021/05/13 11:16:27;;;;;;;12.10;6.57;;;;;;;-144.99;nan;52293.19;5015745;28;20213;-71
2021/05/13 11:19:17;;;;;;;12.23;9.30;;;;;;;-144.99;nan;52291.16;5014693;28;20470;-70
2021/05/13 11:22:11;;;;;;;8.40;4.70;;;;;;;-144.99;nan;52289.13;5008592;28;20228;-68
2021/05/13 11:24:40;;;;;;;8.60;6.43;;;;;;;-144.99;nan;52307.47;5012270;28;20659;-69
2021/05/13 11:27:08;;;;;;;11.97;7.40;;;;;;;-144.99;nan;52268.72;5012145;28;20211;-68
2021/05/13 11:29:50;;;;;;;8.37;6.30;;;;;;;-144.99;nan;52297.25;5006987;28;20239;-69
2021/05/13 11:32:17;;;;;;;6.93;5.73;;;;;;;-144.99;nan;52289.13;5011040;28;20875;-67
2021/05/13 11:34:46;;;;;;;9.57;6.27;;;;;;;-144.99;nan;52256.50;5007480;28;20660;-67